sensor_id;sensor_type;location;lat;lon;timestamp;P1;durP1;ratioP1;P2;durP2;ratioP2
76896;SDS011;65856;52.178;21.176;2024-01-30T00:01:16;25.90;;;11.60;;
76896;SDS011;65856;52.178;21.176;2024-01-30T00:03:42;27.30;;;10.90;;
76896;SDS011;65856;52.178;21.176;2024-01-30T00:06:11;25.80;;;11.90;;
76896;SDS011;65856;52.178;21.176;2024-01-30T00:08:36;22.90;;;11.10;;
76896;SDS011;65856;52.178;21.176;2024-01-30T00:11:02;26.60;;;11.70;;
76896;SDS011;65856;52.178;21.176;2024-01-30T00:13:27;26.80;;;11.60;;
76896;SDS011;65856;52.178;21.176;2024-01-30T00:15:53;23.20;;;10.70;;
76896;SDS011;65856;52.178;21.176;2024-01-30T00:18:19;23.80;;;10.60;;
76896;SDS011;65856;52.178;21.176;2024-01-30T00:20:44;23.90;;;10.90;;
76896;SDS011;65856;52.178;21.176;2024-01-30T00:23:10;30.10;;;12.30;;
76896;SDS011;65856;52.178;21.176;2024-01-30T00:25:35;27.00;;;11.70;;
76896;SDS011;65856;52.178;21.176;2024-01-30T00:28:01;25.50;;;11.00;;
76896;SDS011;65856;52.178;21.176;2024-01-30T00:30:26;27.00;;;11.60;;
76896;SDS011;65856;52.178;21.176;2024-01-30T00:32:52;24.60;;;11.30;;
76896;SDS011;65856;52.178;21.176;2024-01-30T00:35:18;25.20;;;11.30;;
76896;SDS011;65856;52.178;21.176;2024-01-30T00:37:43;25.10;;;11.70;;
76896;SDS011;65856;52.178;21.176;2024-01-30T00:40:09;24.60;;;11.00;;
76896;SDS011;65856;52.178;21.176;2024-01-30T00:42:41;26.10;;;11.40;;
76896;SDS011;65856;52.178;21.176;2024-01-30T00:45:12;29.30;;;11.20;;
76896;SDS011;65856;52.178;21.176;2024-01-30T00:47:41;23.40;;;11.10;;
76896;SDS011;65856;52.178;21.176;2024-01-30T00:50:06;24.80;;;11.20;;
76896;SDS011;65856;52.178;21.176;2024-01-30T00:52:32;25.70;;;11.40;;
76896;SDS011;65856;52.178;21.176;2024-01-30T00:54:58;26.30;;;11.30;;
76896;SDS011;65856;52.178;21.176;2024-01-30T00:57:24;25.20;;;11.40;;
76896;SDS011;65856;52.178;21.176;2024-01-30T00:59:50;26.20;;;11.20;;
76896;SDS011;65856;52.178;21.176;2024-01-30T01:02:15;26.40;;;11.30;;
76896;SDS011;65856;52.178;21.176;2024-01-30T01:04:42;25.70;;;11.50;;
76896;SDS011;65856;52.178;21.176;2024-01-30T01:07:08;26.80;;;11.60;;
76896;SDS011;65856;52.178;21.176;2024-01-30T01:09:33;24.80;;;10.70;;
76896;SDS011;65856;52.178;21.176;2024-01-30T01:11:59;24.80;;;11.80;;
76896;SDS011;65856;52.178;21.176;2024-01-30T01:14:24;24.10;;;10.90;;
76896;SDS011;65856;52.178;21.176;2024-01-30T01:16:50;23.00;;;10.50;;
76896;SDS011;65856;52.178;21.176;2024-01-30T01:19:15;25.30;;;11.90;;
76896;SDS011;65856;52.178;21.176;2024-01-30T01:21:41;25.10;;;11.00;;
76896;SDS011;65856;52.178;21.176;2024-01-30T01:24:06;23.70;;;11.10;;
76896;SDS011;65856;52.178;21.176;2024-01-30T01:26:31;28.50;;;11.50;;
76896;SDS011;65856;52.178;21.176;2024-01-30T01:28:57;26.50;;;11.90;;
76896;SDS011;65856;52.178;21.176;2024-01-30T01:31:22;24.00;;;10.90;;
76896;SDS011;65856;52.178;21.176;2024-01-30T01:33:50;24.10;;;11.70;;
76896;SDS011;65856;52.178;21.176;2024-01-30T01:36:15;28.30;;;13.30;;
76896;SDS011;65856;52.178;21.176;2024-01-30T01:38:41;24.70;;;11.40;;
76896;SDS011;65856;52.178;21.176;2024-01-30T01:41:06;26.20;;;11.50;;
76896;SDS011;65856;52.178;21.176;2024-01-30T01:43:31;26.90;;;12.00;;
76896;SDS011;65856;52.178;21.176;2024-01-30T01:45:57;25.80;;;11.70;;
76896;SDS011;65856;52.178;21.176;2024-01-30T01:48:23;24.10;;;10.60;;
76896;SDS011;65856;52.178;21.176;2024-01-30T01:50:48;22.70;;;11.20;;
76896;SDS011;65856;52.178;21.176;2024-01-30T01:53:15;29.00;;;12.50;;
76896;SDS011;65856;52.178;21.176;2024-01-30T01:55:40;24.20;;;11.40;;
76896;SDS011;65856;52.178;21.176;2024-01-30T01:58:07;23.60;;;11.30;;
76896;SDS011;65856;52.178;21.176;2024-01-30T02:00:34;28.50;;;12.30;;
76896;SDS011;65856;52.178;21.176;2024-01-30T02:03:02;31.10;;;13.00;;
76896;SDS011;65856;52.178;21.176;2024-01-30T02:05:28;26.80;;;12.50;;
76896;SDS011;65856;52.178;21.176;2024-01-30T02:07:54;30.10;;;12.90;;
76896;SDS011;65856;52.178;21.176;2024-01-30T02:10:19;27.40;;;11.50;;
76896;SDS011;65856;52.178;21.176;2024-01-30T02:12:45;29.70;;;12.90;;
76896;SDS011;65856;52.178;21.176;2024-01-30T02:15:13;25.20;;;11.90;;
76896;SDS011;65856;52.178;21.176;2024-01-30T02:17:39;26.80;;;12.00;;
76896;SDS011;65856;52.178;21.176;2024-01-30T02:20:04;26.00;;;11.10;;
76896;SDS011;65856;52.178;21.176;2024-01-30T02:22:32;29.60;;;12.90;;
76896;SDS011;65856;52.178;21.176;2024-01-30T02:24:58;26.10;;;11.90;;
76896;SDS011;65856;52.178;21.176;2024-01-30T02:27:24;28.40;;;12.00;;
76896;SDS011;65856;52.178;21.176;2024-01-30T02:29:49;30.00;;;12.80;;
76896;SDS011;65856;52.178;21.176;2024-01-30T02:32:14;28.40;;;11.90;;
76896;SDS011;65856;52.178;21.176;2024-01-30T02:34:40;24.90;;;11.50;;
76896;SDS011;65856;52.178;21.176;2024-01-30T02:37:05;29.00;;;12.50;;
76896;SDS011;65856;52.178;21.176;2024-01-30T02:39:31;25.90;;;11.20;;
76896;SDS011;65856;52.178;21.176;2024-01-30T02:41:56;22.20;;;11.10;;
76896;SDS011;65856;52.178;21.176;2024-01-30T02:44:22;27.10;;;12.00;;
76896;SDS011;65856;52.178;21.176;2024-01-30T02:46:47;27.30;;;11.40;;
76896;SDS011;65856;52.178;21.176;2024-01-30T02:49:13;27.90;;;11.60;;
76896;SDS011;65856;52.178;21.176;2024-01-30T02:51:38;23.70;;;11.00;;
76896;SDS011;65856;52.178;21.176;2024-01-30T02:54:03;21.90;;;11.00;;
76896;SDS011;65856;52.178;21.176;2024-01-30T02:56:29;27.30;;;11.50;;
76896;SDS011;65856;52.178;21.176;2024-01-30T02:58:54;27.10;;;12.20;;
76896;SDS011;65856;52.178;21.176;2024-01-30T03:01:19;29.30;;;12.70;;
76896;SDS011;65856;52.178;21.176;2024-01-30T03:03:45;27.00;;;12.30;;
76896;SDS011;65856;52.178;21.176;2024-01-30T03:06:10;26.30;;;11.90;;
76896;SDS011;65856;52.178;21.176;2024-01-30T03:08:35;30.80;;;12.40;;
76896;SDS011;65856;52.178;21.176;2024-01-30T03:11:01;26.90;;;11.70;;
76896;SDS011;65856;52.178;21.176;2024-01-30T03:13:26;26.90;;;12.90;;
76896;SDS011;65856;52.178;21.176;2024-01-30T03:15:52;23.60;;;12.00;;
76896;SDS011;65856;52.178;21.176;2024-01-30T03:18:17;30.10;;;12.00;;
76896;SDS011;65856;52.178;21.176;2024-01-30T03:20:43;25.90;;;12.10;;
76896;SDS011;65856;52.178;21.176;2024-01-30T03:23:08;27.40;;;12.60;;
76896;SDS011;65856;52.178;21.176;2024-01-30T03:25:34;26.20;;;12.70;;
76896;SDS011;65856;52.178;21.176;2024-01-30T03:27:59;26.50;;;12.50;;
76896;SDS011;65856;52.178;21.176;2024-01-30T03:30:24;30.00;;;13.00;;
76896;SDS011;65856;52.178;21.176;2024-01-30T03:32:50;29.80;;;13.00;;
76896;SDS011;65856;52.178;21.176;2024-01-30T03:35:15;27.90;;;12.20;;
76896;SDS011;65856;52.178;21.176;2024-01-30T03:37:40;25.30;;;11.60;;
76896;SDS011;65856;52.178;21.176;2024-01-30T03:40:06;25.20;;;12.60;;
76896;SDS011;65856;52.178;21.176;2024-01-30T03:42:32;27.30;;;12.40;;
76896;SDS011;65856;52.178;21.176;2024-01-30T03:44:58;29.50;;;12.40;;
76896;SDS011;65856;52.178;21.176;2024-01-30T03:47:23;30.80;;;13.60;;
76896;SDS011;65856;52.178;21.176;2024-01-30T03:49:48;30.00;;;13.70;;
76896;SDS011;65856;52.178;21.176;2024-01-30T03:52:14;24.80;;;12.10;;
76896;SDS011;65856;52.178;21.176;2024-01-30T03:54:39;28.90;;;12.10;;
76896;SDS011;65856;52.178;21.176;2024-01-30T03:57:05;27.20;;;12.10;;
76896;SDS011;65856;52.178;21.176;2024-01-30T03:59:30;25.70;;;11.70;;
76896;SDS011;65856;52.178;21.176;2024-01-30T04:01:56;27.80;;;13.30;;
76896;SDS011;65856;52.178;21.176;2024-01-30T04:04:21;28.60;;;12.80;;
76896;SDS011;65856;52.178;21.176;2024-01-30T04:06:47;29.20;;;13.00;;
76896;SDS011;65856;52.178;21.176;2024-01-30T04:09:13;26.00;;;12.00;;
76896;SDS011;65856;52.178;21.176;2024-01-30T04:11:41;27.10;;;12.40;;
76896;SDS011;65856;52.178;21.176;2024-01-30T04:14:08;23.30;;;11.30;;
76896;SDS011;65856;52.178;21.176;2024-01-30T04:16:34;27.20;;;12.40;;
76896;SDS011;65856;52.178;21.176;2024-01-30T04:18:59;28.30;;;12.60;;
76896;SDS011;65856;52.178;21.176;2024-01-30T04:21:25;24.30;;;11.30;;
76896;SDS011;65856;52.178;21.176;2024-01-30T04:23:51;27.70;;;11.90;;
76896;SDS011;65856;52.178;21.176;2024-01-30T04:26:17;27.80;;;12.40;;
76896;SDS011;65856;52.178;21.176;2024-01-30T04:28:45;31.30;;;13.30;;
76896;SDS011;65856;52.178;21.176;2024-01-30T04:31:11;27.60;;;12.20;;
76896;SDS011;65856;52.178;21.176;2024-01-30T04:33:37;29.20;;;12.60;;
76896;SDS011;65856;52.178;21.176;2024-01-30T04:36:02;26.10;;;12.40;;
76896;SDS011;65856;52.178;21.176;2024-01-30T04:38:29;29.50;;;13.40;;
76896;SDS011;65856;52.178;21.176;2024-01-30T04:40:54;28.40;;;12.70;;
76896;SDS011;65856;52.178;21.176;2024-01-30T04:43:19;27.80;;;12.90;;
76896;SDS011;65856;52.178;21.176;2024-01-30T04:45:45;28.90;;;13.60;;
76896;SDS011;65856;52.178;21.176;2024-01-30T04:48:11;27.60;;;13.30;;
76896;SDS011;65856;52.178;21.176;2024-01-30T04:50:36;31.30;;;13.00;;
76896;SDS011;65856;52.178;21.176;2024-01-30T04:53:01;30.30;;;13.50;;
76896;SDS011;65856;52.178;21.176;2024-01-30T04:55:27;32.00;;;13.00;;
76896;SDS011;65856;52.178;21.176;2024-01-30T04:57:52;29.90;;;12.80;;
76896;SDS011;65856;52.178;21.176;2024-01-30T05:00:18;27.70;;;12.80;;
76896;SDS011;65856;52.178;21.176;2024-01-30T05:02:43;29.80;;;12.50;;
76896;SDS011;65856;52.178;21.176;2024-01-30T05:05:09;34.90;;;14.20;;
76896;SDS011;65856;52.178;21.176;2024-01-30T05:07:34;26.90;;;12.40;;
76896;SDS011;65856;52.178;21.176;2024-01-30T05:09:59;29.10;;;12.90;;
76896;SDS011;65856;52.178;21.176;2024-01-30T05:12:25;25.30;;;11.70;;
76896;SDS011;65856;52.178;21.176;2024-01-30T05:14:51;31.60;;;13.50;;
76896;SDS011;65856;52.178;21.176;2024-01-30T05:17:17;26.70;;;11.70;;
76896;SDS011;65856;52.178;21.176;2024-01-30T05:19:43;31.60;;;13.00;;
76896;SDS011;65856;52.178;21.176;2024-01-30T05:22:09;29.40;;;12.30;;
76896;SDS011;65856;52.178;21.176;2024-01-30T05:24:36;30.40;;;13.10;;
76896;SDS011;65856;52.178;21.176;2024-01-30T05:27:02;27.80;;;13.00;;
76896;SDS011;65856;52.178;21.176;2024-01-30T05:29:27;27.30;;;12.40;;
76896;SDS011;65856;52.178;21.176;2024-01-30T05:31:53;29.50;;;12.50;;
76896;SDS011;65856;52.178;21.176;2024-01-30T05:34:18;29.30;;;13.30;;
76896;SDS011;65856;52.178;21.176;2024-01-30T05:36:43;27.20;;;13.00;;
76896;SDS011;65856;52.178;21.176;2024-01-30T05:39:09;30.40;;;12.60;;
76896;SDS011;65856;52.178;21.176;2024-01-30T05:41:35;25.60;;;12.00;;
76896;SDS011;65856;52.178;21.176;2024-01-30T05:44:00;30.10;;;12.60;;
76896;SDS011;65856;52.178;21.176;2024-01-30T05:46:26;31.40;;;13.00;;
76896;SDS011;65856;52.178;21.176;2024-01-30T05:48:51;30.60;;;12.90;;
76896;SDS011;65856;52.178;21.176;2024-01-30T05:51:16;31.10;;;13.80;;
76896;SDS011;65856;52.178;21.176;2024-01-30T05:53:42;33.50;;;13.80;;
76896;SDS011;65856;52.178;21.176;2024-01-30T05:56:07;34.90;;;14.50;;
76896;SDS011;65856;52.178;21.176;2024-01-30T05:58:32;28.90;;;12.90;;
76896;SDS011;65856;52.178;21.176;2024-01-30T06:00:58;29.90;;;13.20;;
76896;SDS011;65856;52.178;21.176;2024-01-30T06:03:23;31.40;;;13.10;;
76896;SDS011;65856;52.178;21.176;2024-01-30T06:05:49;30.80;;;13.00;;
76896;SDS011;65856;52.178;21.176;2024-01-30T06:08:14;31.80;;;13.10;;
76896;SDS011;65856;52.178;21.176;2024-01-30T06:10:40;33.10;;;14.10;;
76896;SDS011;65856;52.178;21.176;2024-01-30T06:13:05;28.10;;;12.60;;
76896;SDS011;65856;52.178;21.176;2024-01-30T06:15:31;31.90;;;13.20;;
76896;SDS011;65856;52.178;21.176;2024-01-30T06:17:58;25.10;;;12.20;;
76896;SDS011;65856;52.178;21.176;2024-01-30T06:20:23;26.10;;;12.90;;
76896;SDS011;65856;52.178;21.176;2024-01-30T06:22:49;30.50;;;12.80;;
76896;SDS011;65856;52.178;21.176;2024-01-30T06:25:14;28.90;;;13.00;;
76896;SDS011;65856;52.178;21.176;2024-01-30T06:27:39;29.10;;;12.60;;
76896;SDS011;65856;52.178;21.176;2024-01-30T06:30:05;28.30;;;12.40;;
76896;SDS011;65856;52.178;21.176;2024-01-30T06:32:31;28.30;;;12.40;;
76896;SDS011;65856;52.178;21.176;2024-01-30T06:35:00;24.40;;;11.60;;
76896;SDS011;65856;52.178;21.176;2024-01-30T06:37:26;30.60;;;13.40;;
76896;SDS011;65856;52.178;21.176;2024-01-30T06:39:51;31.90;;;13.30;;
76896;SDS011;65856;52.178;21.176;2024-01-30T06:42:17;36.10;;;13.50;;
76896;SDS011;65856;52.178;21.176;2024-01-30T06:44:43;27.30;;;12.20;;
76896;SDS011;65856;52.178;21.176;2024-01-30T06:47:09;30.80;;;13.00;;
76896;SDS011;65856;52.178;21.176;2024-01-30T06:49:34;29.80;;;12.90;;
76896;SDS011;65856;52.178;21.176;2024-01-30T06:52:04;29.70;;;12.90;;
76896;SDS011;65856;52.178;21.176;2024-01-30T06:54:30;29.20;;;13.00;;
76896;SDS011;65856;52.178;21.176;2024-01-30T06:56:56;30.20;;;12.90;;
76896;SDS011;65856;52.178;21.176;2024-01-30T06:59:21;30.20;;;12.90;;
76896;SDS011;65856;52.178;21.176;2024-01-30T07:01:47;27.10;;;12.70;;
76896;SDS011;65856;52.178;21.176;2024-01-30T07:04:12;26.30;;;11.60;;
76896;SDS011;65856;52.178;21.176;2024-01-30T07:06:37;25.90;;;11.90;;
76896;SDS011;65856;52.178;21.176;2024-01-30T07:09:03;28.70;;;12.90;;
76896;SDS011;65856;52.178;21.176;2024-01-30T07:11:28;23.20;;;10.80;;
76896;SDS011;65856;52.178;21.176;2024-01-30T07:13:54;26.60;;;11.70;;
76896;SDS011;65856;52.178;21.176;2024-01-30T07:16:19;26.50;;;12.10;;
76896;SDS011;65856;52.178;21.176;2024-01-30T07:18:44;30.70;;;12.70;;
76896;SDS011;65856;52.178;21.176;2024-01-30T07:21:10;29.40;;;12.40;;
76896;SDS011;65856;52.178;21.176;2024-01-30T07:23:36;30.20;;;14.20;;
76896;SDS011;65856;52.178;21.176;2024-01-30T07:26:06;34.00;;;14.10;;
76896;SDS011;65856;52.178;21.176;2024-01-30T07:28:33;30.10;;;13.60;;
76896;SDS011;65856;52.178;21.176;2024-01-30T07:30:59;28.40;;;13.70;;
76896;SDS011;65856;52.178;21.176;2024-01-30T07:33:25;29.90;;;13.50;;
76896;SDS011;65856;52.178;21.176;2024-01-30T07:35:52;29.70;;;13.70;;
76896;SDS011;65856;52.178;21.176;2024-01-30T07:38:17;32.40;;;15.30;;
76896;SDS011;65856;52.178;21.176;2024-01-30T07:40:43;29.60;;;14.40;;
76896;SDS011;65856;52.178;21.176;2024-01-30T07:43:08;31.00;;;14.60;;
76896;SDS011;65856;52.178;21.176;2024-01-30T07:45:34;30.10;;;14.20;;
76896;SDS011;65856;52.178;21.176;2024-01-30T07:47:59;31.20;;;15.00;;
76896;SDS011;65856;52.178;21.176;2024-01-30T07:50:25;29.50;;;15.00;;
76896;SDS011;65856;52.178;21.176;2024-01-30T07:52:51;30.90;;;14.20;;
76896;SDS011;65856;52.178;21.176;2024-01-30T07:55:20;29.50;;;14.30;;
76896;SDS011;65856;52.178;21.176;2024-01-30T07:57:49;26.50;;;14.70;;
76896;SDS011;65856;52.178;21.176;2024-01-30T08:00:19;30.90;;;14.50;;
76896;SDS011;65856;52.178;21.176;2024-01-30T08:02:45;28.30;;;14.60;;
76896;SDS011;65856;52.178;21.176;2024-01-30T08:05:11;30.80;;;14.70;;
76896;SDS011;65856;52.178;21.176;2024-01-30T08:07:36;30.60;;;15.10;;
76896;SDS011;65856;52.178;21.176;2024-01-30T08:10:02;30.70;;;14.90;;
76896;SDS011;65856;52.178;21.176;2024-01-30T08:12:28;30.30;;;15.50;;
76896;SDS011;65856;52.178;21.176;2024-01-30T08:14:53;27.60;;;14.90;;
76896;SDS011;65856;52.178;21.176;2024-01-30T08:17:18;30.90;;;15.70;;
76896;SDS011;65856;52.178;21.176;2024-01-30T08:19:44;30.30;;;14.60;;
76896;SDS011;65856;52.178;21.176;2024-01-30T08:22:11;29.60;;;15.30;;
76896;SDS011;65856;52.178;21.176;2024-01-30T08:24:37;30.20;;;15.30;;
76896;SDS011;65856;52.178;21.176;2024-01-30T08:27:02;31.90;;;15.40;;
76896;SDS011;65856;52.178;21.176;2024-01-30T08:29:30;26.90;;;14.40;;
76896;SDS011;65856;52.178;21.176;2024-01-30T08:31:55;32.10;;;16.40;;
76896;SDS011;65856;52.178;21.176;2024-01-30T08:34:20;30.90;;;15.50;;
76896;SDS011;65856;52.178;21.176;2024-01-30T08:36:46;30.00;;;14.90;;
76896;SDS011;65856;52.178;21.176;2024-01-30T08:39:12;30.00;;;15.90;;
76896;SDS011;65856;52.178;21.176;2024-01-30T08:41:37;32.10;;;17.00;;
76896;SDS011;65856;52.178;21.176;2024-01-30T08:44:02;28.90;;;15.50;;
76896;SDS011;65856;52.178;21.176;2024-01-30T08:46:29;29.20;;;14.80;;
76896;SDS011;65856;52.178;21.176;2024-01-30T08:48:55;28.90;;;15.00;;
76896;SDS011;65856;52.178;21.176;2024-01-30T08:51:21;33.60;;;15.80;;
76896;SDS011;65856;52.178;21.176;2024-01-30T08:53:47;34.30;;;16.50;;
76896;SDS011;65856;52.178;21.176;2024-01-30T08:56:12;32.20;;;15.90;;
76896;SDS011;65856;52.178;21.176;2024-01-30T08:58:38;29.50;;;15.30;;
76896;SDS011;65856;52.178;21.176;2024-01-30T09:01:05;29.30;;;15.10;;
76896;SDS011;65856;52.178;21.176;2024-01-30T09:03:31;31.90;;;15.60;;
76896;SDS011;65856;52.178;21.176;2024-01-30T09:05:56;31.40;;;15.40;;
76896;SDS011;65856;52.178;21.176;2024-01-30T09:08:22;31.30;;;15.80;;
76896;SDS011;65856;52.178;21.176;2024-01-30T09:10:47;29.00;;;15.40;;
76896;SDS011;65856;52.178;21.176;2024-01-30T09:13:15;28.00;;;15.50;;
76896;SDS011;65856;52.178;21.176;2024-01-30T09:15:40;33.50;;;16.20;;
76896;SDS011;65856;52.178;21.176;2024-01-30T09:18:06;31.00;;;16.30;;
76896;SDS011;65856;52.178;21.176;2024-01-30T09:20:32;27.80;;;14.30;;
76896;SDS011;65856;52.178;21.176;2024-01-30T09:22:57;28.00;;;14.50;;
76896;SDS011;65856;52.178;21.176;2024-01-30T09:25:22;27.60;;;14.50;;
76896;SDS011;65856;52.178;21.176;2024-01-30T09:27:48;27.70;;;14.40;;
76896;SDS011;65856;52.178;21.176;2024-01-30T09:30:14;29.80;;;15.00;;
76896;SDS011;65856;52.178;21.176;2024-01-30T09:32:40;28.30;;;13.90;;
76896;SDS011;65856;52.178;21.176;2024-01-30T09:35:06;30.30;;;14.40;;
76896;SDS011;65856;52.178;21.176;2024-01-30T09:37:31;30.80;;;14.90;;
76896;SDS011;65856;52.178;21.176;2024-01-30T09:39:57;28.30;;;13.90;;
76896;SDS011;65856;52.178;21.176;2024-01-30T09:42:33;28.50;;;13.60;;
76896;SDS011;65856;52.178;21.176;2024-01-30T09:45:03;28.40;;;13.60;;
76896;SDS011;65856;52.178;21.176;2024-01-30T09:47:40;26.30;;;13.40;;
76896;SDS011;65856;52.178;21.176;2024-01-30T09:50:09;31.30;;;15.40;;
76896;SDS011;65856;52.178;21.176;2024-01-30T09:52:35;28.90;;;15.40;;
76896;SDS011;65856;52.178;21.176;2024-01-30T09:55:01;28.80;;;15.00;;
76896;SDS011;65856;52.178;21.176;2024-01-30T09:57:26;24.60;;;13.40;;
76896;SDS011;65856;52.178;21.176;2024-01-30T09:59:52;27.60;;;13.00;;
76896;SDS011;65856;52.178;21.176;2024-01-30T10:02:19;25.20;;;13.10;;
76896;SDS011;65856;52.178;21.176;2024-01-30T10:04:49;27.30;;;13.20;;
76896;SDS011;65856;52.178;21.176;2024-01-30T10:07:16;29.20;;;13.50;;
76896;SDS011;65856;52.178;21.176;2024-01-30T10:09:42;27.90;;;13.60;;
76896;SDS011;65856;52.178;21.176;2024-01-30T10:12:11;26.70;;;12.90;;
76896;SDS011;65856;52.178;21.176;2024-01-30T10:14:38;26.30;;;12.50;;
76896;SDS011;65856;52.178;21.176;2024-01-30T10:17:04;27.80;;;13.30;;
76896;SDS011;65856;52.178;21.176;2024-01-30T10:19:31;26.80;;;12.60;;
76896;SDS011;65856;52.178;21.176;2024-01-30T10:21:57;25.00;;;12.60;;
76896;SDS011;65856;52.178;21.176;2024-01-30T10:24:26;28.00;;;12.70;;
76896;SDS011;65856;52.178;21.176;2024-01-30T10:26:53;26.60;;;13.20;;
76896;SDS011;65856;52.178;21.176;2024-01-30T10:29:18;24.50;;;12.30;;
76896;SDS011;65856;52.178;21.176;2024-01-30T10:31:44;28.60;;;12.20;;
76896;SDS011;65856;52.178;21.176;2024-01-30T10:34:09;28.30;;;13.10;;
76896;SDS011;65856;52.178;21.176;2024-01-30T10:36:40;22.50;;;11.80;;
76896;SDS011;65856;52.178;21.176;2024-01-30T10:39:09;27.00;;;13.10;;
76896;SDS011;65856;52.178;21.176;2024-01-30T10:41:42;24.60;;;13.20;;
76896;SDS011;65856;52.178;21.176;2024-01-30T10:44:09;23.00;;;11.80;;
76896;SDS011;65856;52.178;21.176;2024-01-30T10:46:37;26.00;;;12.30;;
76896;SDS011;65856;52.178;21.176;2024-01-30T10:49:04;24.50;;;11.50;;
76896;SDS011;65856;52.178;21.176;2024-01-30T10:51:31;19.50;;;10.40;;
76896;SDS011;65856;52.178;21.176;2024-01-30T10:53:57;19.40;;;10.90;;
76896;SDS011;65856;52.178;21.176;2024-01-30T10:56:24;23.00;;;10.90;;
76896;SDS011;65856;52.178;21.176;2024-01-30T10:58:51;24.50;;;11.70;;
76896;SDS011;65856;52.178;21.176;2024-01-30T11:01:19;21.50;;;10.10;;
76896;SDS011;65856;52.178;21.176;2024-01-30T11:03:49;21.50;;;10.50;;
76896;SDS011;65856;52.178;21.176;2024-01-30T11:06:16;20.30;;;10.30;;
76896;SDS011;65856;52.178;21.176;2024-01-30T11:08:44;20.90;;;10.40;;
76896;SDS011;65856;52.178;21.176;2024-01-30T11:11:10;19.20;;;10.30;;
76896;SDS011;65856;52.178;21.176;2024-01-30T11:13:36;22.40;;;10.00;;
76896;SDS011;65856;52.178;21.176;2024-01-30T11:16:05;23.80;;;10.90;;
76896;SDS011;65856;52.178;21.176;2024-01-30T11:18:32;22.90;;;11.10;;
76896;SDS011;65856;52.178;21.176;2024-01-30T11:20:59;21.10;;;11.10;;
76896;SDS011;65856;52.178;21.176;2024-01-30T11:23:30;22.30;;;11.30;;
76896;SDS011;65856;52.178;21.176;2024-01-30T11:25:56;19.60;;;10.00;;
76896;SDS011;65856;52.178;21.176;2024-01-30T11:28:22;19.40;;;10.00;;
76896;SDS011;65856;52.178;21.176;2024-01-30T11:30:48;21.60;;;10.90;;
76896;SDS011;65856;52.178;21.176;2024-01-30T11:33:27;19.70;;;10.40;;
76896;SDS011;65856;52.178;21.176;2024-01-30T11:35:57;20.40;;;10.10;;
76896;SDS011;65856;52.178;21.176;2024-01-30T11:40:54;19.70;;;10.00;;
76896;SDS011;65856;52.178;21.176;2024-01-30T11:43:21;19.10;;;10.40;;
76896;SDS011;65856;52.178;21.176;2024-01-30T11:45:47;19.50;;;10.10;;
76896;SDS011;65856;52.178;21.176;2024-01-30T11:48:13;22.10;;;10.20;;
76896;SDS011;65856;52.178;21.176;2024-01-30T11:50:39;19.70;;;10.10;;
76896;SDS011;65856;52.178;21.176;2024-01-30T11:53:05;20.10;;;10.10;;
76896;SDS011;65856;52.178;21.176;2024-01-30T11:55:31;22.10;;;10.90;;
76896;SDS011;65856;52.178;21.176;2024-01-30T11:57:57;21.80;;;10.50;;
76896;SDS011;65856;52.178;21.176;2024-01-30T12:00:24;21.50;;;11.20;;
76896;SDS011;65856;52.178;21.176;2024-01-30T12:02:51;25.30;;;10.80;;
76896;SDS011;65856;52.178;21.176;2024-01-30T12:05:21;22.80;;;10.80;;
76896;SDS011;65856;52.178;21.176;2024-01-30T12:07:47;19.60;;;10.80;;
76896;SDS011;65856;52.178;21.176;2024-01-30T12:10:13;21.60;;;10.20;;
76896;SDS011;65856;52.178;21.176;2024-01-30T12:12:45;19.40;;;10.00;;
76896;SDS011;65856;52.178;21.176;2024-01-30T12:15:12;18.90;;;10.20;;
76896;SDS011;65856;52.178;21.176;2024-01-30T12:17:37;21.40;;;11.10;;
76896;SDS011;65856;52.178;21.176;2024-01-30T12:20:07;20.00;;;10.70;;
76896;SDS011;65856;52.178;21.176;2024-01-30T12:22:42;22.10;;;9.80;;
76896;SDS011;65856;52.178;21.176;2024-01-30T12:25:10;21.80;;;10.50;;
76896;SDS011;65856;52.178;21.176;2024-01-30T12:27:38;21.00;;;10.90;;
76896;SDS011;65856;52.178;21.176;2024-01-30T12:30:11;20.40;;;10.20;;
76896;SDS011;65856;52.178;21.176;2024-01-30T12:32:50;21.50;;;10.30;;
76896;SDS011;65856;52.178;21.176;2024-01-30T12:35:20;24.20;;;10.10;;
76896;SDS011;65856;52.178;21.176;2024-01-30T12:37:47;21.60;;;10.20;;
76896;SDS011;65856;52.178;21.176;2024-01-30T12:40:14;20.20;;;10.80;;
76896;SDS011;65856;52.178;21.176;2024-01-30T12:42:43;21.80;;;11.10;;
76896;SDS011;65856;52.178;21.176;2024-01-30T12:45:14;21.40;;;10.20;;
76896;SDS011;65856;52.178;21.176;2024-01-30T12:47:41;20.30;;;10.70;;
76896;SDS011;65856;52.178;21.176;2024-01-30T12:50:06;21.90;;;10.20;;
76896;SDS011;65856;52.178;21.176;2024-01-30T12:52:32;21.00;;;9.70;;
76896;SDS011;65856;52.178;21.176;2024-01-30T12:54:57;22.50;;;10.10;;
76896;SDS011;65856;52.178;21.176;2024-01-30T12:57:22;19.60;;;10.00;;
76896;SDS011;65856;52.178;21.176;2024-01-30T12:59:48;23.60;;;9.60;;
76896;SDS011;65856;52.178;21.176;2024-01-30T13:02:14;19.10;;;9.30;;
76896;SDS011;65856;52.178;21.176;2024-01-30T13:04:40;20.30;;;9.80;;
76896;SDS011;65856;52.178;21.176;2024-01-30T13:07:06;20.50;;;9.80;;
76896;SDS011;65856;52.178;21.176;2024-01-30T13:09:31;20.90;;;10.60;;
76896;SDS011;65856;52.178;21.176;2024-01-30T13:11:58;20.00;;;9.40;;
76896;SDS011;65856;52.178;21.176;2024-01-30T13:14:24;19.50;;;10.30;;
76896;SDS011;65856;52.178;21.176;2024-01-30T13:16:50;21.10;;;10.00;;
76896;SDS011;65856;52.178;21.176;2024-01-30T13:19:16;21.10;;;9.70;;
76896;SDS011;65856;52.178;21.176;2024-01-30T13:21:42;20.10;;;9.40;;
76896;SDS011;65856;52.178;21.176;2024-01-30T13:24:07;18.80;;;9.70;;
76896;SDS011;65856;52.178;21.176;2024-01-30T13:26:33;22.90;;;10.20;;
76896;SDS011;65856;52.178;21.176;2024-01-30T13:28:58;20.90;;;10.70;;
76896;SDS011;65856;52.178;21.176;2024-01-30T13:31:24;21.70;;;10.20;;
76896;SDS011;65856;52.178;21.176;2024-01-30T13:33:50;18.50;;;9.40;;
76896;SDS011;65856;52.178;21.176;2024-01-30T13:36:15;20.80;;;10.60;;
76896;SDS011;65856;52.178;21.176;2024-01-30T13:38:40;19.20;;;9.60;;
76896;SDS011;65856;52.178;21.176;2024-01-30T13:41:06;21.00;;;9.40;;
76896;SDS011;65856;52.178;21.176;2024-01-30T13:43:31;20.30;;;10.20;;
76896;SDS011;65856;52.178;21.176;2024-01-30T13:45:57;20.50;;;9.30;;
76896;SDS011;65856;52.178;21.176;2024-01-30T13:48:22;18.50;;;9.40;;
76896;SDS011;65856;52.178;21.176;2024-01-30T13:50:48;22.50;;;11.30;;
76896;SDS011;65856;52.178;21.176;2024-01-30T13:53:13;21.50;;;9.80;;
76896;SDS011;65856;52.178;21.176;2024-01-30T13:55:39;19.20;;;9.60;;
76896;SDS011;65856;52.178;21.176;2024-01-30T13:58:05;20.50;;;9.90;;
76896;SDS011;65856;52.178;21.176;2024-01-30T14:00:31;18.70;;;8.90;;
76896;SDS011;65856;52.178;21.176;2024-01-30T14:02:57;20.20;;;10.10;;
76896;SDS011;65856;52.178;21.176;2024-01-30T14:05:24;17.60;;;9.60;;